sensor_id;sensor_type;location;lat;lon;timestamp;P1;durP1;ratioP1;P2;durP2;ratioP2
82722;SDS011;72450;42.008;21.356;2024-03-06T00:01:18;20.85;;;12.15;;
82722;SDS011;72450;42.008;21.356;2024-03-06T00:03:44;25.48;;;13.38;;
82722;SDS011;72450;42.008;21.356;2024-03-06T00:06:11;22.20;;;11.63;;
82722;SDS011;72450;42.008;21.356;2024-03-06T00:08:37;18.38;;;10.55;;
82722;SDS011;72450;42.008;21.356;2024-03-06T00:11:03;22.35;;;11.75;;
82722;SDS011;72450;42.008;21.356;2024-03-06T00:13:29;19.85;;;11.32;;
82722;SDS011;72450;42.008;21.356;2024-03-06T00:15:55;18.40;;;10.20;;
82722;SDS011;72450;42.008;21.356;2024-03-06T00:18:21;26.17;;;11.30;;
82722;SDS011;72450;42.008;21.356;2024-03-06T00:20:47;19.35;;;10.70;;
82722;SDS011;72450;42.008;21.356;2024-03-06T00:23:13;20.40;;;11.40;;
82722;SDS011;72450;42.008;21.356;2024-03-06T00:25:40;17.45;;;9.93;;
82722;SDS011;72450;42.008;21.356;2024-03-06T00:28:06;16.02;;;10.38;;
82722;SDS011;72450;42.008;21.356;2024-03-06T00:30:32;18.23;;;10.85;;
82722;SDS011;72450;42.008;21.356;2024-03-06T00:32:58;20.77;;;9.68;;
82722;SDS011;72450;42.008;21.356;2024-03-06T00:35:24;16.42;;;9.07;;
82722;SDS011;72450;42.008;21.356;2024-03-06T00:37:51;16.13;;;8.95;;
82722;SDS011;72450;42.008;21.356;2024-03-06T00:40:18;17.10;;;8.90;;
82722;SDS011;72450;42.008;21.356;2024-03-06T00:42:44;15.32;;;9.20;;
82722;SDS011;72450;42.008;21.356;2024-03-06T00:45:10;17.95;;;9.90;;
82722;SDS011;72450;42.008;21.356;2024-03-06T00:47:37;17.70;;;9.73;;
82722;SDS011;72450;42.008;21.356;2024-03-06T00:50:03;15.32;;;9.30;;
82722;SDS011;72450;42.008;21.356;2024-03-06T00:52:32;16.40;;;9.50;;
82722;SDS011;72450;42.008;21.356;2024-03-06T00:54:58;19.50;;;10.25;;
82722;SDS011;72450;42.008;21.356;2024-03-06T00:57:25;22.83;;;9.85;;
82722;SDS011;72450;42.008;21.356;2024-03-06T00:59:51;17.40;;;9.43;;
82722;SDS011;72450;42.008;21.356;2024-03-06T01:02:17;19.63;;;11.68;;
82722;SDS011;72450;42.008;21.356;2024-03-06T01:04:43;18.15;;;10.05;;
82722;SDS011;72450;42.008;21.356;2024-03-06T01:07:09;17.80;;;9.60;;
82722;SDS011;72450;42.008;21.356;2024-03-06T01:09:35;15.98;;;9.77;;
82722;SDS011;72450;42.008;21.356;2024-03-06T01:12:01;18.13;;;9.55;;
82722;SDS011;72450;42.008;21.356;2024-03-06T01:14:27;16.80;;;9.75;;
82722;SDS011;72450;42.008;21.356;2024-03-06T01:16:54;17.92;;;10.18;;
82722;SDS011;72450;42.008;21.356;2024-03-06T01:19:20;20.77;;;12.00;;
82722;SDS011;72450;42.008;21.356;2024-03-06T01:21:47;15.75;;;9.05;;
82722;SDS011;72450;42.008;21.356;2024-03-06T01:24:13;17.05;;;9.82;;
82722;SDS011;72450;42.008;21.356;2024-03-06T01:26:39;15.52;;;9.93;;
82722;SDS011;72450;42.008;21.356;2024-03-06T01:29:06;17.70;;;9.30;;
82722;SDS011;72450;42.008;21.356;2024-03-06T01:31:32;23.17;;;10.10;;
82722;SDS011;72450;42.008;21.356;2024-03-06T01:33:58;18.77;;;11.20;;
82722;SDS011;72450;42.008;21.356;2024-03-06T01:36:24;17.88;;;9.38;;
82722;SDS011;72450;42.008;21.356;2024-03-06T01:38:50;14.23;;;9.15;;
82722;SDS011;72450;42.008;21.356;2024-03-06T01:41:16;14.10;;;8.23;;
82722;SDS011;72450;42.008;21.356;2024-03-06T01:43:42;18.50;;;8.80;;
82722;SDS011;72450;42.008;21.356;2024-03-06T01:46:09;13.02;;;8.85;;
82722;SDS011;72450;42.008;21.356;2024-03-06T01:48:35;18.00;;;10.48;;
82722;SDS011;72450;42.008;21.356;2024-03-06T01:51:01;17.30;;;9.25;;
82722;SDS011;72450;42.008;21.356;2024-03-06T01:53:30;13.48;;;8.20;;
82722;SDS011;72450;42.008;21.356;2024-03-06T01:55:57;18.92;;;9.85;;
82722;SDS011;72450;42.008;21.356;2024-03-06T01:58:23;15.15;;;7.95;;
82722;SDS011;72450;42.008;21.356;2024-03-06T02:00:50;16.60;;;9.30;;
82722;SDS011;72450;42.008;21.356;2024-03-06T02:03:17;17.38;;;9.80;;
82722;SDS011;72450;42.008;21.356;2024-03-06T02:08:10;17.33;;;9.77;;
82722;SDS011;72450;42.008;21.356;2024-03-06T02:10:36;17.05;;;10.60;;
82722;SDS011;72450;42.008;21.356;2024-03-06T02:13:02;22.98;;;10.35;;
82722;SDS011;72450;42.008;21.356;2024-03-06T02:15:28;18.45;;;10.57;;
82722;SDS011;72450;42.008;21.356;2024-03-06T02:17:54;18.83;;;9.38;;
82722;SDS011;72450;42.008;21.356;2024-03-06T02:20:24;18.80;;;10.73;;
82722;SDS011;72450;42.008;21.356;2024-03-06T02:22:50;18.75;;;9.95;;
82722;SDS011;72450;42.008;21.356;2024-03-06T02:25:17;17.63;;;10.07;;
82722;SDS011;72450;42.008;21.356;2024-03-06T02:27:44;17.10;;;11.23;;
82722;SDS011;72450;42.008;21.356;2024-03-06T02:30:10;17.42;;;9.82;;
82722;SDS011;72450;42.008;21.356;2024-03-06T02:32:36;17.40;;;9.60;;
82722;SDS011;72450;42.008;21.356;2024-03-06T02:35:03;17.52;;;10.10;;
82722;SDS011;72450;42.008;21.356;2024-03-06T02:37:33;16.65;;;9.07;;
82722;SDS011;72450;42.008;21.356;2024-03-06T02:39:59;15.38;;;9.32;;
82722;SDS011;72450;42.008;21.356;2024-03-06T02:42:27;21.45;;;10.52;;
82722;SDS011;72450;42.008;21.356;2024-03-06T02:44:54;20.85;;;9.98;;
82722;SDS011;72450;42.008;21.356;2024-03-06T02:47:20;20.90;;;11.07;;
82722;SDS011;72450;42.008;21.356;2024-03-06T02:49:46;21.92;;;11.10;;
82722;SDS011;72450;42.008;21.356;2024-03-06T02:52:12;17.58;;;10.00;;
82722;SDS011;72450;42.008;21.356;2024-03-06T02:54:40;20.98;;;10.10;;
82722;SDS011;72450;42.008;21.356;2024-03-06T02:57:07;22.15;;;10.80;;
82722;SDS011;72450;42.008;21.356;2024-03-06T02:59:33;22.30;;;10.90;;
82722;SDS011;72450;42.008;21.356;2024-03-06T03:01:59;17.67;;;9.52;;
82722;SDS011;72450;42.008;21.356;2024-03-06T03:04:25;17.73;;;10.90;;
82722;SDS011;72450;42.008;21.356;2024-03-06T03:06:52;18.20;;;9.93;;
82722;SDS011;72450;42.008;21.356;2024-03-06T03:09:18;16.58;;;9.77;;
82722;SDS011;72450;42.008;21.356;2024-03-06T03:11:44;18.63;;;10.85;;
82722;SDS011;72450;42.008;21.356;2024-03-06T03:14:10;18.05;;;9.85;;
82722;SDS011;72450;42.008;21.356;2024-03-06T03:16:36;19.90;;;11.63;;
82722;SDS011;72450;42.008;21.356;2024-03-06T03:19:03;20.48;;;12.23;;
82722;SDS011;72450;42.008;21.356;2024-03-06T03:21:29;22.42;;;10.23;;
82722;SDS011;72450;42.008;21.356;2024-03-06T03:26:23;21.95;;;12.20;;
82722;SDS011;72450;42.008;21.356;2024-03-06T03:28:49;17.77;;;9.50;;
82722;SDS011;72450;42.008;21.356;2024-03-06T03:31:15;16.77;;;9.82;;
82722;SDS011;72450;42.008;21.356;2024-03-06T03:33:41;19.55;;;10.90;;
82722;SDS011;72450;42.008;21.356;2024-03-06T03:36:08;17.42;;;9.65;;
82722;SDS011;72450;42.008;21.356;2024-03-06T03:38:37;17.55;;;9.73;;
82722;SDS011;72450;42.008;21.356;2024-03-06T03:41:12;18.73;;;11.10;;
82722;SDS011;72450;42.008;21.356;2024-03-06T03:43:39;17.27;;;9.63;;
82722;SDS011;72450;42.008;21.356;2024-03-06T03:46:05;19.90;;;11.30;;
82722;SDS011;72450;42.008;21.356;2024-03-06T03:48:31;17.80;;;10.45;;
82722;SDS011;72450;42.008;21.356;2024-03-06T03:51:01;18.60;;;9.98;;
82722;SDS011;72450;42.008;21.356;2024-03-06T03:53:29;16.00;;;8.88;;
82722;SDS011;72450;42.008;21.356;2024-03-06T03:55:55;19.90;;;12.07;;
82722;SDS011;72450;42.008;21.356;2024-03-06T03:58:21;20.85;;;10.43;;
82722;SDS011;72450;42.008;21.356;2024-03-06T04:00:47;21.58;;;11.00;;
82722;SDS011;72450;42.008;21.356;2024-03-06T04:03:17;18.10;;;10.52;;
82722;SDS011;72450;42.008;21.356;2024-03-06T04:05:43;18.17;;;10.00;;
82722;SDS011;72450;42.008;21.356;2024-03-06T04:08:09;19.73;;;11.45;;
82722;SDS011;72450;42.008;21.356;2024-03-06T04:10:35;42.83;;;19.60;;
82722;SDS011;72450;42.008;21.356;2024-03-06T04:13:01;30.38;;;14.45;;
82722;SDS011;72450;42.008;21.356;2024-03-06T04:15:28;27.13;;;13.82;;
82722;SDS011;72450;42.008;21.356;2024-03-06T04:17:54;24.45;;;12.73;;
82722;SDS011;72450;42.008;21.356;2024-03-06T04:20:20;20.00;;;10.77;;
82722;SDS011;72450;42.008;21.356;2024-03-06T04:22:46;20.77;;;11.70;;
82722;SDS011;72450;42.008;21.356;2024-03-06T04:25:15;18.40;;;11.88;;
82722;SDS011;72450;42.008;21.356;2024-03-06T04:27:41;19.05;;;10.40;;
82722;SDS011;72450;42.008;21.356;2024-03-06T04:30:07;22.73;;;11.45;;
82722;SDS011;72450;42.008;21.356;2024-03-06T04:32:34;21.13;;;11.30;;
82722;SDS011;72450;42.008;21.356;2024-03-06T04:35:00;31.90;;;13.13;;
82722;SDS011;72450;42.008;21.356;2024-03-06T04:37:26;24.67;;;13.45;;
82722;SDS011;72450;42.008;21.356;2024-03-06T04:42:20;24.70;;;12.35;;
82722;SDS011;72450;42.008;21.356;2024-03-06T04:44:46;23.75;;;13.63;;
82722;SDS011;72450;42.008;21.356;2024-03-06T04:47:12;23.65;;;14.18;;
82722;SDS011;72450;42.008;21.356;2024-03-06T04:49:38;22.45;;;11.82;;
82722;SDS011;72450;42.008;21.356;2024-03-06T04:52:04;21.65;;;12.52;;
82722;SDS011;72450;42.008;21.356;2024-03-06T04:54:30;24.08;;;12.55;;
82722;SDS011;72450;42.008;21.356;2024-03-06T04:56:56;24.17;;;12.40;;
82722;SDS011;72450;42.008;21.356;2024-03-06T04:59:22;23.45;;;12.43;;
82722;SDS011;72450;42.008;21.356;2024-03-06T05:01:49;26.58;;;14.02;;
82722;SDS011;72450;42.008;21.356;2024-03-06T05:04:15;26.00;;;13.50;;
82722;SDS011;72450;42.008;21.356;2024-03-06T05:06:41;23.10;;;12.55;;
82722;SDS011;72450;42.008;21.356;2024-03-06T05:09:07;22.88;;;12.20;;
82722;SDS011;72450;42.008;21.356;2024-03-06T05:11:37;20.35;;;11.80;;
82722;SDS011;72450;42.008;21.356;2024-03-06T05:14:04;21.15;;;12.30;;
82722;SDS011;72450;42.008;21.356;2024-03-06T05:16:30;22.25;;;13.00;;
82722;SDS011;72450;42.008;21.356;2024-03-06T05:18:56;21.75;;;11.73;;
82722;SDS011;72450;42.008;21.356;2024-03-06T05:21:22;23.63;;;12.77;;
82722;SDS011;72450;42.008;21.356;2024-03-06T05:23:48;23.90;;;13.35;;
82722;SDS011;72450;42.008;21.356;2024-03-06T05:26:14;22.27;;;12.02;;
82722;SDS011;72450;42.008;21.356;2024-03-06T05:28:41;28.65;;;13.75;;
82722;SDS011;72450;42.008;21.356;2024-03-06T05:31:17;24.75;;;14.18;;
82722;SDS011;72450;42.008;21.356;2024-03-06T05:33:44;22.88;;;13.30;;
82722;SDS011;72450;42.008;21.356;2024-03-06T05:36:10;28.30;;;15.90;;
82722;SDS011;72450;42.008;21.356;2024-03-06T05:41:05;23.88;;;11.85;;
82722;SDS011;72450;42.008;21.356;2024-03-06T05:43:31;21.05;;;11.93;;
82722;SDS011;72450;42.008;21.356;2024-03-06T05:45:57;26.58;;;12.57;;
82722;SDS011;72450;42.008;21.356;2024-03-06T05:48:23;23.42;;;12.00;;
82722;SDS011;72450;42.008;21.356;2024-03-06T05:50:49;33.13;;;16.80;;
82722;SDS011;72450;42.008;21.356;2024-03-06T05:53:15;29.42;;;16.20;;
82722;SDS011;72450;42.008;21.356;2024-03-06T05:55:42;33.63;;;16.13;;
82722;SDS011;72450;42.008;21.356;2024-03-06T05:58:08;27.20;;;15.25;;
82722;SDS011;72450;42.008;21.356;2024-03-06T06:00:34;26.17;;;15.00;;
82722;SDS011;72450;42.008;21.356;2024-03-06T06:03:00;30.77;;;15.38;;
82722;SDS011;72450;42.008;21.356;2024-03-06T06:05:26;29.45;;;15.52;;
82722;SDS011;72450;42.008;21.356;2024-03-06T06:07:52;30.33;;;16.45;;
82722;SDS011;72450;42.008;21.356;2024-03-06T06:10:18;25.10;;;14.30;;
82722;SDS011;72450;42.008;21.356;2024-03-06T06:12:45;25.08;;;13.57;;
82722;SDS011;72450;42.008;21.356;2024-03-06T06:15:11;29.42;;;15.25;;
82722;SDS011;72450;42.008;21.356;2024-03-06T06:17:37;24.63;;;13.23;;
82722;SDS011;72450;42.008;21.356;2024-03-06T06:20:06;28.98;;;16.13;;
82722;SDS011;72450;42.008;21.356;2024-03-06T06:22:35;24.88;;;14.88;;
82722;SDS011;72450;42.008;21.356;2024-03-06T06:25:02;25.27;;;13.90;;
82722;SDS011;72450;42.008;21.356;2024-03-06T06:27:28;22.27;;;12.75;;
82722;SDS011;72450;42.008;21.356;2024-03-06T06:29:54;21.08;;;14.05;;
82722;SDS011;72450;42.008;21.356;2024-03-06T06:32:23;26.00;;;12.85;;
82722;SDS011;72450;42.008;21.356;2024-03-06T06:34:49;23.92;;;13.27;;
82722;SDS011;72450;42.008;21.356;2024-03-06T06:37:15;34.45;;;15.23;;
82722;SDS011;72450;42.008;21.356;2024-03-06T06:39:41;23.05;;;12.57;;
82722;SDS011;72450;42.008;21.356;2024-03-06T06:42:07;29.23;;;15.18;;
82722;SDS011;72450;42.008;21.356;2024-03-06T06:44:35;23.52;;;14.50;;
82722;SDS011;72450;42.008;21.356;2024-03-06T06:47:02;27.88;;;14.38;;
82722;SDS011;72450;42.008;21.356;2024-03-06T06:49:28;24.08;;;12.63;;
82722;SDS011;72450;42.008;21.356;2024-03-06T06:51:54;20.73;;;12.23;;
82722;SDS011;72450;42.008;21.356;2024-03-06T06:54:20;19.10;;;11.55;;
82722;SDS011;72450;42.008;21.356;2024-03-06T06:56:46;26.70;;;14.55;;
82722;SDS011;72450;42.008;21.356;2024-03-06T06:59:12;25.33;;;13.38;;
82722;SDS011;72450;42.008;21.356;2024-03-06T07:01:39;24.23;;;13.40;;
82722;SDS011;72450;42.008;21.356;2024-03-06T07:04:06;12.93;;;7.78;;
82722;SDS011;72450;42.008;21.356;2024-03-06T07:06:32;22.85;;;10.93;;
82722;SDS011;72450;42.008;21.356;2024-03-06T07:08:59;15.93;;;7.78;;
82722;SDS011;72450;42.008;21.356;2024-03-06T07:11:28;23.73;;;13.27;;
82722;SDS011;72450;42.008;21.356;2024-03-06T07:13:54;24.83;;;13.10;;
82722;SDS011;72450;42.008;21.356;2024-03-06T07:16:20;24.27;;;12.77;;
82722;SDS011;72450;42.008;21.356;2024-03-06T07:18:46;24.00;;;13.32;;
82722;SDS011;72450;42.008;21.356;2024-03-06T07:21:13;23.00;;;13.18;;
82722;SDS011;72450;42.008;21.356;2024-03-06T07:23:39;23.15;;;12.85;;
82722;SDS011;72450;42.008;21.356;2024-03-06T07:26:05;23.77;;;12.50;;
82722;SDS011;72450;42.008;21.356;2024-03-06T07:28:31;21.42;;;13.32;;
82722;SDS011;72450;42.008;21.356;2024-03-06T07:30:57;19.27;;;11.45;;
82722;SDS011;72450;42.008;21.356;2024-03-06T07:33:24;21.92;;;13.35;;
82722;SDS011;72450;42.008;21.356;2024-03-06T07:35:50;23.17;;;13.15;;
82722;SDS011;72450;42.008;21.356;2024-03-06T07:38:16;22.67;;;11.63;;
82722;SDS011;72450;42.008;21.356;2024-03-06T07:40:42;21.90;;;13.40;;
82722;SDS011;72450;42.008;21.356;2024-03-06T07:43:08;22.65;;;12.30;;
82722;SDS011;72450;42.008;21.356;2024-03-06T07:45:34;28.02;;;13.32;;
82722;SDS011;72450;42.008;21.356;2024-03-06T07:48:00;23.63;;;12.40;;
82722;SDS011;72450;42.008;21.356;2024-03-06T07:50:27;19.77;;;11.30;;
82722;SDS011;72450;42.008;21.356;2024-03-06T07:52:53;23.65;;;11.90;;
82722;SDS011;72450;42.008;21.356;2024-03-06T07:55:20;27.58;;;12.55;;
82722;SDS011;72450;42.008;21.356;2024-03-06T07:57:47;24.58;;;12.52;;
82722;SDS011;72450;42.008;21.356;2024-03-06T08:00:13;22.95;;;13.38;;
82722;SDS011;72450;42.008;21.356;2024-03-06T08:02:40;20.17;;;12.43;;
82722;SDS011;72450;42.008;21.356;2024-03-06T08:05:11;20.02;;;11.60;;
82722;SDS011;72450;42.008;21.356;2024-03-06T08:07:38;22.98;;;12.77;;
82722;SDS011;72450;42.008;21.356;2024-03-06T08:10:07;24.27;;;11.43;;
82722;SDS011;72450;42.008;21.356;2024-03-06T08:12:33;22.45;;;14.25;;
82722;SDS011;72450;42.008;21.356;2024-03-06T08:14:59;24.45;;;12.27;;
82722;SDS011;72450;42.008;21.356;2024-03-06T08:17:27;22.80;;;12.85;;
82722;SDS011;72450;42.008;21.356;2024-03-06T08:19:53;24.23;;;12.10;;
82722;SDS011;72450;42.008;21.356;2024-03-06T08:22:20;24.45;;;13.77;;
82722;SDS011;72450;42.008;21.356;2024-03-06T08:24:46;24.20;;;11.52;;
82722;SDS011;72450;42.008;21.356;2024-03-06T08:27:13;22.25;;;11.90;;
82722;SDS011;72450;42.008;21.356;2024-03-06T08:29:39;21.50;;;11.88;;
82722;SDS011;72450;42.008;21.356;2024-03-06T08:32:05;26.52;;;12.63;;
82722;SDS011;72450;42.008;21.356;2024-03-06T08:34:31;16.90;;;11.00;;
82722;SDS011;72450;42.008;21.356;2024-03-06T08:36:58;31.13;;;12.10;;
82722;SDS011;72450;42.008;21.356;2024-03-06T08:39:24;27.58;;;13.13;;
82722;SDS011;72450;42.008;21.356;2024-03-06T08:41:50;20.13;;;11.57;;
82722;SDS011;72450;42.008;21.356;2024-03-06T08:44:17;20.23;;;11.60;;
82722;SDS011;72450;42.008;21.356;2024-03-06T08:46:45;15.43;;;8.85;;
82722;SDS011;72450;42.008;21.356;2024-03-06T08:49:11;23.30;;;12.23;;
82722;SDS011;72450;42.008;21.356;2024-03-06T08:51:37;24.08;;;12.77;;
82722;SDS011;72450;42.008;21.356;2024-03-06T08:54:03;20.70;;;12.85;;
82722;SDS011;72450;42.008;21.356;2024-03-06T08:56:29;20.40;;;12.60;;
82722;SDS011;72450;42.008;21.356;2024-03-06T08:58:56;24.92;;;13.85;;
82722;SDS011;72450;42.008;21.356;2024-03-06T09:01:22;25.38;;;12.65;;
82722;SDS011;72450;42.008;21.356;2024-03-06T09:03:48;24.52;;;12.90;;
82722;SDS011;72450;42.008;21.356;2024-03-06T09:06:14;19.58;;;12.65;;
82722;SDS011;72450;42.008;21.356;2024-03-06T09:08:40;25.95;;;12.82;;
82722;SDS011;72450;42.008;21.356;2024-03-06T09:11:06;27.70;;;12.52;;
82722;SDS011;72450;42.008;21.356;2024-03-06T09:13:32;23.33;;;13.40;;
82722;SDS011;72450;42.008;21.356;2024-03-06T09:15:58;16.63;;;11.20;;
82722;SDS011;72450;42.008;21.356;2024-03-06T09:18:24;24.83;;;14.40;;
82722;SDS011;72450;42.008;21.356;2024-03-06T09:20:51;18.42;;;11.73;;
82722;SDS011;72450;42.008;21.356;2024-03-06T09:23:17;29.02;;;13.05;;
82722;SDS011;72450;42.008;21.356;2024-03-06T09:25:43;24.98;;;12.55;;
82722;SDS011;72450;42.008;21.356;2024-03-06T09:28:10;25.40;;;12.63;;
82722;SDS011;72450;42.008;21.356;2024-03-06T09:30:37;19.63;;;12.45;;
82722;SDS011;72450;42.008;21.356;2024-03-06T09:33:03;22.98;;;12.65;;
82722;SDS011;72450;42.008;21.356;2024-03-06T09:35:29;22.30;;;12.65;;
82722;SDS011;72450;42.008;21.356;2024-03-06T09:37:57;20.23;;;13.27;;
82722;SDS011;72450;42.008;21.356;2024-03-06T09:40:35;22.33;;;13.68;;
82722;SDS011;72450;42.008;21.356;2024-03-06T09:43:01;21.08;;;13.10;;
82722;SDS011;72450;42.008;21.356;2024-03-06T09:45:27;24.50;;;12.18;;
82722;SDS011;72450;42.008;21.356;2024-03-06T09:47:53;24.25;;;12.40;;
82722;SDS011;72450;42.008;21.356;2024-03-06T09:50:22;24.95;;;13.50;;
82722;SDS011;72450;42.008;21.356;2024-03-06T09:52:50;23.23;;;13.63;;
82722;SDS011;72450;42.008;21.356;2024-03-06T09:55:17;23.33;;;12.38;;
82722;SDS011;72450;42.008;21.356;2024-03-06T09:57:43;21.58;;;12.75;;
82722;SDS011;72450;42.008;21.356;2024-03-06T10:00:10;24.38;;;12.75;;
82722;SDS011;72450;42.008;21.356;2024-03-06T10:02:41;22.92;;;11.00;;
82722;SDS011;72450;42.008;21.356;2024-03-06T10:05:20;17.70;;;10.95;;
82722;SDS011;72450;42.008;21.356;2024-03-06T10:07:46;21.67;;;12.07;;
82722;SDS011;72450;42.008;21.356;2024-03-06T10:10:12;24.00;;;12.65;;
82722;SDS011;72450;42.008;21.356;2024-03-06T10:12:40;21.58;;;11.90;;
82722;SDS011;72450;42.008;21.356;2024-03-06T10:15:07;18.63;;;11.27;;
82722;SDS011;72450;42.008;21.356;2024-03-06T10:17:37;24.33;;;13.10;;
82722;SDS011;72450;42.008;21.356;2024-03-06T10:20:22;19.60;;;11.23;;
82722;SDS011;72450;42.008;21.356;2024-03-06T10:22:52;16.50;;;8.95;;
82722;SDS011;72450;42.008;21.356;2024-03-06T10:25:21;18.77;;;11.82;;
82722;SDS011;72450;42.008;21.356;2024-03-06T10:30:30;16.17;;;10.90;;
82722;SDS011;72450;42.008;21.356;2024-03-06T10:32:57;16.83;;;10.23;;
82722;SDS011;72450;42.008;21.356;2024-03-06T10:35:24;16.90;;;11.13;;
82722;SDS011;72450;42.008;21.356;2024-03-06T10:37:51;18.58;;;10.20;;
82722;SDS011;72450;42.008;21.356;2024-03-06T10:40:18;18.20;;;11.18;;
82722;SDS011;72450;42.008;21.356;2024-03-06T10:42:45;18.98;;;10.43;;
82722;SDS011;72450;42.008;21.356;2024-03-06T10:45:15;25.88;;;11.73;;
82722;SDS011;72450;42.008;21.356;2024-03-06T10:47:45;13.40;;;9.07;;
82722;SDS011;72450;42.008;21.356;2024-03-06T10:50:15;18.95;;;10.32;;
82722;SDS011;72450;42.008;21.356;2024-03-06T10:52:41;17.38;;;11.15;;
82722;SDS011;72450;42.008;21.356;2024-03-06T10:55:08;19.10;;;9.77;;
82722;SDS011;72450;42.008;21.356;2024-03-06T10:57:36;19.80;;;11.88;;
82722;SDS011;72450;42.008;21.356;2024-03-06T11:00:02;15.80;;;10.38;;
82722;SDS011;72450;42.008;21.356;2024-03-06T11:02:30;14.38;;;9.30;;
82722;SDS011;72450;42.008;21.356;2024-03-06T11:04:57;14.13;;;8.73;;
82722;SDS011;72450;42.008;21.356;2024-03-06T11:07:23;15.70;;;8.75;;
82722;SDS011;72450;42.008;21.356;2024-03-06T11:09:49;17.00;;;9.30;;
82722;SDS011;72450;42.008;21.356;2024-03-06T11:12:35;13.55;;;8.85;;
82722;SDS011;72450;42.008;21.356;2024-03-06T11:15:36;14.93;;;9.07;;
82722;SDS011;72450;42.008;21.356;2024-03-06T11:17:55;13.43;;;9.85;;
82722;SDS011;72450;42.008;21.356;2024-03-06T11:20:21;14.50;;;8.32;;
82722;SDS011;72450;42.008;21.356;2024-03-06T11:30:46;9.93;;;6.30;;
82722;SDS011;72450;42.008;21.356;2024-03-06T11:33:14;12.50;;;8.48;;
82722;SDS011;72450;42.008;21.356;2024-03-06T11:38:29;9.65;;;6.30;;
82722;SDS011;72450;42.008;21.356;2024-03-06T11:40:55;15.57;;;9.07;;
82722;SDS011;72450;42.008;21.356;2024-03-06T11:43:24;15.70;;;10.13;;
82722;SDS011;72450;42.008;21.356;2024-03-06T11:45:51;14.13;;;8.23;;
82722;SDS011;72450;42.008;21.356;2024-03-06T11:48:17;17.00;;;9.50;;
82722;SDS011;72450;42.008;21.356;2024-03-06T11:50:47;12.73;;;8.85;;
82722;SDS011;72450;42.008;21.356;2024-03-06T11:53:14;14.88;;;8.63;;
82722;SDS011;72450;42.008;21.356;2024-03-06T12:00:33;14.65;;;8.95;;
82722;SDS011;72450;42.008;21.356;2024-03-06T12:02:59;15.88;;;8.82;;
82722;SDS011;72450;42.008;21.356;2024-03-06T12:05:25;10.43;;;7.50;;
82722;SDS011;72450;42.008;21.356;2024-03-06T12:07:52;21.02;;;11.18;;
82722;SDS011;72450;42.008;21.356;2024-03-06T12:10:19;15.65;;;9.68;;
82722;SDS011;72450;42.008;21.356;2024-03-06T12:12:45;17.23;;;9.82;;
82722;SDS011;72450;42.008;21.356;2024-03-06T12:15:12;12.00;;;8.13;;
82722;SDS011;72450;42.008;21.356;2024-03-06T12:17:45;12.25;;;8.20;;
82722;SDS011;72450;42.008;21.356;2024-03-06T12:20:12;12.13;;;6.57;;
82722;SDS011;72450;42.008;21.356;2024-03-06T12:22:44;13.75;;;7.70;;
82722;SDS011;72450;42.008;21.356;2024-03-06T12:25:17;10.15;;;6.60;;
82722;SDS011;72450;42.008;21.356;2024-03-06T12:27:44;11.93;;;7.30;;
82722;SDS011;72450;42.008;21.356;2024-03-06T12:30:10;9.02;;;6.22;;
82722;SDS011;72450;42.008;21.356;2024-03-06T12:32:38;10.48;;;6.43;;
82722;SDS011;72450;42.008;21.356;2024-03-06T12:35:04;7.95;;;6.40;;
82722;SDS011;72450;42.008;21.356;2024-03-06T12:37:31;10.43;;;6.30;;
82722;SDS011;72450;42.008;21.356;2024-03-06T12:39:57;8.75;;;5.43;;
82722;SDS011;72450;42.008;21.356;2024-03-06T12:42:23;10.43;;;6.82;;
82722;SDS011;72450;42.008;21.356;2024-03-06T12:44:50;12.73;;;6.22;;
82722;SDS011;72450;42.008;21.356;2024-03-06T12:47:17;10.25;;;5.88;;
82722;SDS011;72450;42.008;21.356;2024-03-06T12:49:43;11.52;;;6.35;;
82722;SDS011;72450;42.008;21.356;2024-03-06T12:52:09;12.23;;;7.03;;
82722;SDS011;72450;42.008;21.356;2024-03-06T12:54:35;15.10;;;7.13;;
82722;SDS011;72450;42.008;21.356;2024-03-06T13:00:04;11.57;;;6.35;;
82722;SDS011;72450;42.008;21.356;2024-03-06T13:02:40;11.52;;;6.75;;
82722;SDS011;72450;42.008;21.356;2024-03-06T13:05:07;11.15;;;6.53;;
82722;SDS011;72450;42.008;21.356;2024-03-06T13:07:33;9.23;;;6.07;;
82722;SDS011;72450;42.008;21.356;2024-03-06T13:09:59;14.18;;;6.68;;
82722;SDS011;72450;42.008;21.356;2024-03-06T13:12:26;10.35;;;6.80;;
82722;SDS011;72450;42.008;21.356;2024-03-06T13:14:52;9.40;;;6.18;;
82722;SDS011;72450;42.008;21.356;2024-03-06T13:19:45;8.45;;;6.30;;
82722;SDS011;72450;42.008;21.356;2024-03-06T13:22:11;9.93;;;5.57;;
82722;SDS011;72450;42.008;21.356;2024-03-06T13:24:37;9.07;;;5.68;;
82722;SDS011;72450;42.008;21.356;2024-03-06T13:27:03;7.95;;;5.00;;
82722;SDS011;72450;42.008;21.356;2024-03-06T13:29:29;9.63;;;4.90;;
82722;SDS011;72450;42.008;21.356;2024-03-06T13:31:55;9.02;;;4.95;;
82722;SDS011;72450;42.008;21.356;2024-03-06T13:34:22;8.50;;;5.22;;
82722;SDS011;72450;42.008;21.356;2024-03-06T13:36:48;7.68;;;5.07;;
82722;SDS011;72450;42.008;21.356;2024-03-06T13:39:14;12.48;;;5.10;;
82722;SDS011;72450;42.008;21.356;2024-03-06T13:41:40;6.47;;;4.35;;
82722;SDS011;72450;42.008;21.356;2024-03-06T13:44:06;10.00;;;5.10;;
82722;SDS011;72450;42.008;21.356;2024-03-06T13:48:59;7.03;;;4.53;;
82722;SDS011;72450;42.008;21.356;2024-03-06T13:53:51;7.43;;;4.65;;
82722;SDS011;72450;42.008;21.356;2024-03-06T13:56:17;9.55;;;4.75;;
82722;SDS011;72450;42.008;21.356;2024-03-06T13:58:43;7.57;;;5.00;;
82722;SDS011;72450;42.008;21.356;2024-03-06T14:01:10;5.85;;;3.83;;
82722;SDS011;72450;42.008;21.356;2024-03-06T14:03:36;8.90;;;5.30;;
82722;SDS011;72450;42.008;21.356;2024-03-06T14:06:04;6.85;;;4.28;;
82722;SDS011;72450;42.008;21.356;2024-03-06T14:08:32;14.05;;;5.50;;
82722;SDS011;72450;42.008;21.356;2024-03-06T14:10:58;9.98;;;4.30;;
82722;SDS011;72450;42.008;21.356;2024-03-06T14:13:24;11.85;;;5.65;;
82722;SDS011;72450;42.008;21.356;2024-03-06T14:15:50;11.25;;;5.82;;
82722;SDS011;72450;42.008;21.356;2024-03-06T14:18:18;10.43;;;5.35;;
82722;SDS011;72450;42.008;21.356;2024-03-06T14:20:44;7.82;;;5.22;;
82722;SDS011;72450;42.008;21.356;2024-03-06T14:23:10;15.07;;;5.00;;
82722;SDS011;72450;42.008;21.356;2024-03-06T14:25:37;9.80;;;6.15;;
82722;SDS011;72450;42.008;21.356;2024-03-06T14:28:03;8.63;;;4.68;;
82722;SDS011;72450;42.008;21.356;2024-03-06T14:30:29;7.47;;;4.25;;
82722;SDS011;72450;42.008;21.356;2024-03-06T14:32:55;9.98;;;6.10;;
82722;SDS011;72450;42.008;21.356;2024-03-06T14:35:21;8.90;;;5.43;;
82722;SDS011;72450;42.008;21.356;2024-03-06T14:37:48;8.68;;;5.63;;
82722;SDS011;72450;42.008;21.356;2024-03-06T14:40:14;9.50;;;5.10;;
82722;SDS011;72450;42.008;21.356;2024-03-06T14:42:40;13.23;;;5.47;;
82722;SDS011;72450;42.008;21.356;2024-03-06T14:45:07;10.50;;;6.38;;
82722;SDS011;72450;42.008;21.356;2024-03-06T14:47:34;8.82;;;4.95;;
82722;SDS011;72450;42.008;21.356;2024-03-06T14:50:01;8.82;;;5.05;;
82722;SDS011;72450;42.008;21.356;2024-03-06T14:52:27;8.63;;;5.30;;